createdAt,value
2022-08-14T00:00:51.962Z,4.30
2022-08-14T00:04:34.817Z,4.00
2022-08-14T00:07:21.947Z,4.17
2022-08-14T00:10:50.475Z,3.73
2022-08-14T00:16:52.163Z,4.33
2022-08-14T00:20:03.112Z,3.90
2022-08-14T00:23:30.024Z,4.30
2022-08-14T00:26:31.007Z,4.40
2022-08-14T00:32:52.586Z,3.90
2022-08-14T00:39:10.044Z,4.20
2022-08-14T00:45:20.099Z,4.20
2022-08-14T00:48:34.316Z,4.25
2022-08-14T00:51:45.118Z,4.33
2022-08-14T00:55:11.101Z,4.60
2022-08-14T00:58:32.617Z,5.33
2022-08-14T01:01:53.177Z,4.63
2022-08-14T01:05:05.201Z,4.00
2022-08-14T01:08:50.715Z,4.30
2022-08-14T01:11:31.842Z,3.73
2022-08-14T01:14:56.152Z,3.93
2022-08-14T01:18:16.871Z,4.03
2022-08-14T01:21:47.160Z,4.30
2022-08-14T01:24:55.262Z,4.87
2022-08-14T01:28:46.536Z,5.20
2022-08-14T01:31:36.883Z,4.17
2022-08-14T01:35:20.774Z,4.57
2022-08-14T01:38:08.266Z,4.93
2022-08-14T01:41:33.217Z,4.63
2022-08-14T01:47:41.283Z,4.50
2022-08-14T01:51:00.303Z,5.03
2022-08-14T01:54:24.297Z,5.30
2022-08-14T01:57:56.594Z,4.43
2022-08-14T02:00:50.323Z,4.30
2022-08-14T02:04:03.436Z,5.63
2022-08-14T02:07:06.337Z,4.93
2022-08-14T02:10:31.363Z,4.83
2022-08-14T02:13:45.386Z,4.70
2022-08-14T02:17:09.359Z,5.00
2022-08-14T02:20:09.381Z,4.77
2022-08-14T02:23:27.770Z,5.60
2022-08-14T02:28:18.837Z,5.03
2022-08-14T02:30:05.432Z,4.60
2022-08-14T02:33:17.465Z,5.27
2022-08-14T02:37:04.370Z,4.60
2022-08-14T02:39:41.460Z,5.13
2022-08-14T02:43:08.599Z,5.57
2022-08-14T02:46:26.953Z,5.20
2022-08-14T02:49:35.490Z,5.40
2022-08-14T02:52:57.748Z,6.25
2022-08-14T02:56:30.396Z,5.75
2022-08-14T02:59:23.492Z,6.10
2022-08-14T03:02:58.805Z,5.73
2022-08-14T03:05:49.501Z,5.30
2022-08-14T03:09:01.540Z,5.90
2022-08-14T03:12:01.510Z,5.60
2022-08-14T03:15:25.531Z,5.40
2022-08-14T03:18:45.556Z,5.90
2022-08-14T03:22:17.588Z,5.97
2022-08-14T03:25:10.622Z,6.20
2022-08-14T03:28:34.594Z,5.30
2022-08-14T03:31:35.590Z,5.50
2022-08-14T03:35:01.579Z,6.30
2022-08-14T03:39:12.392Z,5.63
2022-08-14T03:41:13.625Z,5.27
2022-08-14T03:45:19.574Z,5.47
2022-08-14T03:47:46.680Z,6.15
2022-08-14T03:50:39.822Z,5.85
2022-08-14T03:54:00.651Z,5.35
2022-08-14T03:57:13.670Z,6.27
2022-08-14T04:00:45.162Z,5.73
2022-08-14T04:03:39.682Z,6.03
2022-08-14T04:06:47.532Z,5.60
2022-08-14T04:09:53.700Z,5.60
2022-08-14T04:13:10.712Z,5.15
2022-08-14T04:16:34.705Z,5.10
2022-08-14T04:19:36.521Z,6.20
2022-08-14T04:22:58.716Z,6.20
2022-08-14T04:25:59.820Z,6.33
2022-08-14T04:29:26.824Z,5.67
2022-08-14T04:33:00.794Z,5.00
2022-08-14T04:35:56.157Z,4.67
2022-08-14T04:38:56.310Z,5.90
2022-08-14T04:42:14.841Z,5.90
2022-08-14T04:45:29.542Z,5.27
2022-08-14T04:48:55.536Z,5.47
2022-08-14T04:51:56.000Z,5.35
2022-08-14T04:58:02.854Z,6.67
2022-08-14T05:01:29.887Z,4.20
2022-08-14T05:04:45.553Z,5.43
2022-08-14T05:08:06.865Z,5.23
2022-08-14T05:11:18.901Z,6.57
2022-08-14T05:14:53.647Z,6.60
2022-08-14T05:18:03.629Z,6.00
2022-08-14T05:21:59.542Z,6.30
2022-08-14T05:24:33.919Z,4.73
2022-08-14T05:27:45.930Z,4.70
2022-08-14T05:30:48.943Z,5.43
2022-08-14T05:34:16.191Z,5.00
2022-08-14T05:37:28.335Z,5.40
2022-08-14T05:40:52.070Z,6.37
2022-08-14T05:44:06.985Z,6.30
2022-08-14T05:47:20.004Z,5.23
2022-08-14T05:50:37.025Z,6.20
2022-08-14T05:53:59.970Z,5.35
2022-08-14T05:56:55.212Z,6.30
2022-08-14T06:00:08.036Z,6.30
2022-08-14T06:03:32.038Z,5.60
2022-08-14T06:06:45.064Z,6.67
2022-08-14T06:10:03.781Z,6.17
2022-08-14T06:13:10.031Z,6.00
2022-08-14T06:16:23.074Z,6.63
2022-08-14T06:19:35.157Z,6.67
2022-08-14T06:23:00.138Z,5.20
2022-08-14T06:26:01.107Z,5.27
2022-08-14T06:29:26.169Z,5.63
2022-08-14T06:32:36.602Z,5.20
2022-08-14T06:35:50.142Z,5.27
2022-08-14T06:39:04.146Z,4.93
2022-08-14T06:42:18.373Z,5.40
2022-08-14T06:45:18.191Z,5.10
2022-08-14T06:48:42.185Z,4.67
2022-08-14T06:51:44.723Z,4.90
2022-08-14T06:55:10.208Z,4.97
2022-08-14T06:58:28.524Z,4.73
2022-08-14T07:01:42.332Z,4.90
2022-08-14T07:04:47.945Z,4.40
2022-08-14T07:08:00.322Z,3.87
2022-08-14T07:11:14.248Z,4.20
2022-08-14T07:14:29.271Z,4.03
2022-08-14T07:17:32.122Z,4.17
2022-08-14T07:23:47.561Z,4.73
2022-08-14T07:27:17.317Z,4.50
2022-08-14T07:30:34.064Z,4.60
2022-08-14T07:33:54.287Z,4.10
2022-08-14T07:36:58.377Z,3.73
2022-08-14T07:40:13.341Z,3.93
2022-08-14T07:43:27.337Z,4.00
2022-08-14T07:46:39.380Z,4.57
2022-08-14T07:49:55.463Z,3.87
2022-08-14T07:53:17.372Z,4.40
2022-08-14T07:56:46.957Z,4.40
2022-08-14T07:59:55.429Z,4.47
2022-08-14T08:03:12.410Z,5.30
2022-08-14T08:06:37.594Z,4.83
2022-08-14T08:10:02.183Z,3.97
2022-08-14T08:13:25.526Z,4.03
2022-08-14T08:16:39.456Z,4.43
2022-08-14T08:19:58.614Z,4.35
2022-08-14T08:23:10.434Z,5.00
2022-08-14T08:26:26.469Z,4.00
2022-08-14T08:29:43.482Z,4.43
2022-08-14T08:33:08.517Z,4.20
2022-08-14T08:36:22.758Z,4.27
2022-08-14T08:40:01.126Z,4.37
2022-08-14T08:42:53.083Z,4.10
2022-08-14T08:46:21.426Z,4.00
2022-08-14T08:49:36.407Z,4.50
2022-08-14T08:52:51.120Z,3.63
2022-08-14T08:55:57.537Z,3.90
2022-08-14T08:59:09.671Z,4.40
2022-08-14T09:02:21.683Z,4.15
2022-08-14T09:05:47.603Z,3.40
2022-08-14T09:08:59.561Z,3.95
2022-08-14T09:46:35.685Z,4.40
2022-08-14T09:49:57.766Z,4.30
2022-08-14T09:56:24.237Z,4.30
2022-08-14T09:59:36.375Z,4.03
2022-08-14T10:02:48.926Z,4.30
2022-08-14T10:06:00.807Z,3.87
2022-08-14T10:09:16.564Z,3.90
2022-08-14T10:12:29.105Z,3.80
2022-08-14T10:15:40.768Z,3.90
2022-08-14T10:19:07.180Z,4.40
2022-08-14T10:23:12.078Z,4.10
2022-08-14T10:25:34.151Z,4.05
2022-08-14T10:29:17.731Z,4.50
2022-08-14T10:31:57.833Z,4.07
2022-08-14T10:35:14.187Z,4.25
2022-08-14T10:38:23.858Z,4.07
2022-08-14T10:41:41.818Z,4.35
2022-08-14T10:45:02.858Z,3.83
2022-08-14T10:48:24.115Z,3.60
2022-08-14T10:51:50.895Z,3.85
2022-08-14T10:55:02.902Z,3.80
2022-08-14T10:58:17.840Z,3.50
2022-08-14T11:01:16.918Z,3.78
2022-08-14T11:04:45.974Z,3.90
2022-08-14T11:07:59.952Z,4.20
2022-08-14T11:11:23.987Z,4.07
2022-08-14T11:14:26.407Z,3.65
2022-08-14T11:17:35.947Z,3.70
2022-08-14T11:20:48.064Z,3.47
2022-08-14T11:24:55.257Z,3.87
2022-08-14T11:27:33.390Z,4.07
2022-08-14T11:33:26.953Z,3.53
2022-08-14T11:37:04.455Z,3.50
2022-08-14T11:40:02.105Z,3.50
2022-08-14T11:43:29.374Z,3.62
2022-08-14T11:46:38.079Z,3.85
2022-08-14T11:53:02.494Z,3.87
2022-08-14T11:59:15.056Z,3.90
2022-08-14T12:03:03.084Z,3.67
2022-08-14T12:06:05.068Z,3.53
2022-08-14T12:09:17.102Z,3.90
2022-08-14T12:12:42.286Z,3.42
2022-08-14T12:15:57.129Z,4.03
2022-08-14T12:19:23.150Z,4.10
2022-08-14T12:22:29.637Z,3.50
2022-08-14T12:25:59.384Z,3.62
2022-08-14T12:29:00.006Z,3.42
2022-08-14T12:32:12.759Z,4.20
2022-08-14T12:35:25.175Z,4.20
2022-08-14T12:38:59.170Z,4.15
2022-08-14T12:42:34.578Z,4.20
2022-08-14T12:45:28.185Z,3.87
2022-08-14T12:48:39.274Z,3.85
2022-08-14T12:52:09.357Z,3.87
2022-08-14T12:55:22.220Z,3.75
2022-08-14T12:58:52.414Z,4.37
2022-08-14T13:02:00.165Z,5.20
2022-08-14T13:05:25.229Z,4.13
2022-08-14T13:08:38.260Z,4.17
2022-08-14T13:12:32.166Z,4.12
2022-08-14T13:15:14.293Z,4.45
2022-08-14T13:18:38.292Z,4.40
2022-08-14T13:22:04.884Z,4.43
2022-08-14T13:25:17.360Z,3.53
2022-08-14T13:28:32.665Z,4.37
2022-08-14T13:31:41.332Z,4.17
2022-08-14T13:34:53.401Z,4.30
2022-08-14T13:38:17.370Z,4.45
2022-08-14T13:41:36.303Z,4.30
2022-08-14T13:45:03.684Z,3.90
2022-08-14T13:48:04.381Z,4.10
2022-08-14T13:51:29.783Z,4.03
2022-08-14T13:54:40.404Z,4.25
2022-08-14T13:58:07.378Z,4.20
2022-08-14T14:01:19.615Z,4.20
2022-08-14T14:04:32.458Z,3.97
2022-08-14T14:07:44.408Z,4.32
2022-08-14T14:10:56.437Z,4.18
2022-08-14T14:14:10.033Z,4.40
2022-08-14T14:17:34.459Z,3.97
2022-08-14T14:20:36.503Z,3.97
2022-08-14T14:23:47.499Z,4.10
2022-08-14T14:27:00.284Z,4.37
2022-08-14T14:33:47.030Z,4.10
2022-08-14T14:37:07.546Z,4.30
2022-08-14T14:40:54.233Z,3.87
2022-08-14T14:43:44.688Z,4.17
2022-08-14T14:46:48.637Z,4.30
2022-08-14T14:50:20.568Z,4.10
2022-08-14T14:53:21.540Z,4.10
2022-08-14T14:56:51.032Z,3.75
2022-08-14T14:59:59.561Z,4.28
2022-08-14T15:03:11.590Z,4.07
2022-08-14T15:06:30.334Z,4.25
2022-08-14T15:09:36.636Z,3.73
2022-08-14T15:12:57.516Z,4.25
2022-08-14T15:15:52.772Z,4.35
2022-08-14T15:19:02.585Z,4.07
2022-08-14T15:22:28.646Z,4.28
2022-08-14T15:38:38.083Z,3.90
2022-08-14T15:41:47.698Z,3.55
2022-08-14T15:45:11.801Z,4.47
2022-08-14T15:48:23.743Z,4.32
2022-08-14T15:51:27.743Z,4.33
2022-08-14T15:54:49.761Z,4.12
2022-08-14T15:58:06.465Z,3.50
2022-08-14T16:01:54.607Z,3.87
2022-08-14T16:04:38.836Z,4.12
2022-08-14T16:11:09.830Z,3.95
2022-08-14T16:14:21.307Z,4.10
2022-08-14T16:17:32.800Z,3.97
2022-08-14T16:20:56.796Z,4.43
2022-08-14T16:24:26.905Z,4.03
2022-08-14T16:27:38.778Z,3.75
2022-08-14T16:34:45.765Z,4.10
2022-08-14T16:37:01.977Z,4.22
2022-08-14T16:43:38.837Z,4.10
2022-08-14T16:47:03.081Z,4.15
2022-08-14T16:53:07.322Z,3.90
2022-08-14T16:56:38.902Z,4.00
2022-08-14T16:59:57.626Z,4.22
2022-08-14T17:03:26.915Z,4.20
2022-08-14T17:06:38.932Z,4.18
2022-08-14T17:10:09.750Z,4.07
2022-08-14T17:13:20.949Z,4.18
2022-08-14T17:16:49.973Z,4.28
2022-08-14T17:20:01.986Z,4.37
2022-08-14T17:23:30.602Z,4.97
2022-08-14T17:26:59.824Z,4.43
2022-08-14T17:36:06.513Z,4.70
2022-08-14T17:39:40.120Z,4.35
2022-08-14T17:42:43.071Z,4.32
2022-08-14T17:46:09.657Z,4.35
2022-08-14T17:49:19.563Z,4.20
2022-08-14T17:52:50.187Z,5.18
2022-08-14T17:59:17.800Z,4.50
2022-08-14T18:02:40.087Z,4.50
2022-08-14T18:06:06.528Z,4.60
2022-08-14T18:09:25.076Z,4.47
2022-08-14T18:12:43.859Z,4.60
2022-08-14T18:15:57.202Z,4.72
2022-08-14T18:19:22.131Z,5.05
2022-08-14T18:22:37.028Z,4.95
2022-08-14T18:25:59.154Z,4.70
2022-08-14T18:32:26.178Z,4.90
2022-08-14T18:35:58.094Z,4.65
2022-08-14T18:39:02.295Z,4.97
2022-08-14T18:43:06.239Z,5.25
2022-08-14T18:46:59.721Z,4.68
2022-08-14T18:49:48.274Z,5.07
2022-08-14T18:53:10.830Z,4.93
2022-08-14T18:56:23.252Z,5.12
2022-08-14T18:59:54.246Z,5.18
2022-08-14T19:03:18.307Z,5.00
2022-08-14T19:06:32.338Z,4.80
2022-08-14T19:10:16.889Z,5.07
2022-08-14T19:13:44.420Z,4.62
2022-08-14T19:17:02.376Z,4.87
2022-08-14T19:20:27.330Z,5.18
2022-08-14T19:24:27.386Z,5.15
2022-08-14T19:27:26.352Z,5.28
2022-08-14T19:30:38.389Z,5.35
2022-08-14T19:34:30.082Z,4.80
2022-08-14T19:37:37.444Z,4.90
2022-08-14T19:40:55.379Z,5.00
2022-08-14T19:44:19.519Z,4.70
2022-08-14T20:57:20.600Z,4.80
2022-08-14T21:00:34.677Z,4.55
2022-08-14T21:04:12.007Z,4.90
2022-08-14T21:10:51.777Z,5.10
2022-08-14T21:14:26.396Z,5.30
2022-08-14T21:17:20.682Z,5.00
2022-08-14T21:20:34.711Z,4.70
2022-08-14T21:23:58.676Z,5.00
2022-08-14T21:27:12.956Z,5.10
2022-08-14T21:30:41.859Z,5.13
2022-08-14T21:33:25.772Z,4.73
2022-08-14T21:36:52.725Z,5.40
2022-08-14T21:39:57.095Z,5.25
2022-08-14T21:43:06.755Z,5.60
2022-08-14T21:46:18.786Z,4.80
2022-08-14T21:49:46.336Z,4.60
2022-08-14T21:53:00.892Z,4.80
2022-08-14T21:56:23.802Z,4.60
2022-08-14T21:59:35.996Z,4.50
2022-08-14T22:02:51.905Z,4.80
2022-08-14T22:06:17.386Z,4.45
